Terminal Aerodrome Forecast
Issued by NWS Green Bay, WI

Home | Current Version | Previous Version | Text Only | Print | Product List | Glossary Off
Versions: 1 2 3 4 5 6 7 8 9 10 11 12 13 14 15 16 17 18 19 20 21 22 23 24 25 26 27 28 29 30 31 32 33 34 35 36 37 38 39 40 41 42 43 44 45 46

000
FTUS43 KGRB 031600 AAD
TAFGRB
TAF AMD
KGRB 031631Z 0317/0412 16011G18KT 2SM -FZDZSN BKN024
      TEMPO 0317/0319 1/2SM SN FZFG BKN007
     FM031900 17008G16KT 4SM -SN OVC012
     FM032100 24009KT 6SM -SN SCT015 OVC018
     FM032300 27010KT P6SM -SN SCT009 OVC025
     FM040200 28012G20KT P6SM SCT030 SCT100=

USA.gov is the U.S. government's official web portal to all federal, state and local government web resources and services.